createdAt,value
2023-04-18T00:00:20.237Z,1017.94
2023-04-18T00:01:21.059Z,1017.94
2023-04-18T00:02:21.620Z,1017.95
2023-04-18T00:03:21.845Z,1018.00
2023-04-18T00:04:22.677Z,1017.98
2023-04-18T00:05:22.134Z,1017.98
2023-04-18T00:06:22.076Z,1017.91
2023-04-18T00:07:21.492Z,1017.99
2023-04-18T00:08:23.532Z,1018.02
2023-04-18T00:09:21.861Z,1018.00
2023-04-18T00:10:22.884Z,1018.05
2023-04-18T00:11:23.056Z,1018.00
2023-04-18T00:12:22.569Z,1018.00
2023-04-18T00:13:22.482Z,1017.99
2023-04-18T00:14:23.551Z,1017.92
2023-04-18T00:15:22.826Z,1017.99
2023-04-18T00:16:23.025Z,1017.92
2023-04-18T00:17:23.266Z,1017.95
2023-04-18T00:18:23.471Z,1017.94
2023-04-18T00:19:23.696Z,1017.93
2023-04-18T00:20:24.557Z,1017.97
2023-04-18T00:21:25.020Z,1017.96
2023-04-18T00:22:25.916Z,1017.96
2023-04-18T00:23:25.064Z,1017.98
2023-04-18T00:24:25.522Z,1017.98
2023-04-18T00:25:26.386Z,1018.02
2023-04-18T00:26:25.039Z,1018.00
2023-04-18T00:27:26.050Z,1018.12
2023-04-18T00:28:25.360Z,1018.09
2023-04-18T00:29:25.590Z,1018.05
2023-04-18T00:30:26.591Z,1018.01
2023-04-18T00:31:26.033Z,1018.11
2023-04-18T00:32:26.241Z,1018.09
2023-04-18T00:33:26.375Z,1018.11
2023-04-18T00:34:26.584Z,1018.10
2023-04-18T00:35:27.562Z,1018.14
2023-04-18T00:36:27.577Z,1018.13
2023-04-18T00:37:28.017Z,1018.08
2023-04-18T00:38:27.328Z,1018.08
2023-04-18T00:39:28.068Z,1018.06
2023-04-18T00:40:27.708Z,1018.08
2023-04-18T00:41:27.896Z,1018.13
2023-04-18T00:42:29.527Z,1018.14
2023-04-18T00:43:29.070Z,1018.08
2023-04-18T00:44:28.438Z,1018.12
2023-04-18T00:45:29.579Z,1018.06
2023-04-18T00:46:28.790Z,1018.08
2023-04-18T00:47:29.587Z,1018.08
2023-04-18T00:48:29.100Z,1018.08
2023-04-18T00:49:29.242Z,1018.01
2023-04-18T00:50:30.531Z,1018.08
2023-04-18T00:51:30.533Z,1018.05
2023-04-18T00:52:30.557Z,1018.00
2023-04-18T00:53:30.566Z,1018.08
2023-04-18T00:54:29.986Z,1018.05
2023-04-18T00:55:30.180Z,1018.05
2023-04-18T00:56:32.393Z,1018.01
2023-04-18T00:57:31.085Z,1017.96
2023-04-18T00:58:30.700Z,1018.04
2023-04-18T00:59:30.893Z,1017.99
2023-04-18T01:00:32.393Z,1017.90
2023-04-18T01:01:31.299Z,1017.94
2023-04-18T01:02:31.599Z,1017.91
2023-04-18T01:03:31.836Z,1017.93
2023-04-18T01:04:31.936Z,1017.98
2023-04-18T01:05:32.566Z,1017.94
2023-04-18T01:06:32.213Z,1017.98
2023-04-18T01:07:33.066Z,1017.87
2023-04-18T01:08:34.068Z,1017.96
2023-04-18T01:09:32.709Z,1017.99
2023-04-18T01:10:33.081Z,1018.05
2023-04-18T01:11:32.990Z,1017.98
2023-04-18T01:12:34.085Z,1017.99
2023-04-18T01:13:33.310Z,1018.02
2023-04-18T01:14:33.449Z,1017.99
2023-04-18T01:15:34.106Z,1017.97
2023-04-18T01:16:33.788Z,1017.91
2023-04-18T01:17:34.600Z,1017.95
2023-04-18T01:18:34.033Z,1017.97
2023-04-18T01:19:35.023Z,1017.94
2023-04-18T01:20:35.031Z,1017.92
2023-04-18T01:21:34.642Z,1017.91
2023-04-18T01:22:35.542Z,1017.87
2023-04-18T01:23:34.937Z,1017.91
2023-04-18T01:24:36.034Z,1017.97
2023-04-18T01:25:36.035Z,1017.93
2023-04-18T01:26:35.409Z,1017.90
2023-04-18T01:27:36.084Z,1017.91
2023-04-18T01:28:36.538Z,1017.91
2023-04-18T01:29:38.475Z,1017.93
2023-04-18T01:30:37.321Z,1017.90
2023-04-18T01:31:38.103Z,1017.94
2023-04-18T01:32:37.925Z,1017.95
2023-04-18T01:33:37.096Z,1017.98
2023-04-18T01:34:36.769Z,1017.94
2023-04-18T01:35:37.580Z,1017.92
2023-04-18T01:36:37.072Z,1017.94
2023-04-18T01:37:37.619Z,1017.92
2023-04-18T01:38:37.407Z,1017.90
2023-04-18T01:39:37.626Z,1017.98
2023-04-18T01:40:39.534Z,1017.93
2023-04-18T01:41:38.030Z,1017.91
2023-04-18T01:42:38.198Z,1017.95
2023-04-18T01:43:38.373Z,1017.93
2023-04-18T01:44:39.110Z,1017.96
2023-04-18T01:45:38.760Z,1017.94
2023-04-18T01:46:39.583Z,1017.90
2023-04-18T01:47:39.141Z,1017.97
2023-04-18T01:48:41.040Z,1017.99
2023-04-18T01:49:39.424Z,1017.97
2023-04-18T01:50:39.640Z,1017.99
2023-04-18T01:51:41.413Z,1018.00
2023-04-18T01:52:40.585Z,1018.01
2023-04-18T01:53:41.083Z,1018.02
2023-04-18T01:54:41.036Z,1018.09
2023-04-18T01:55:41.090Z,1018.10
2023-04-18T01:56:40.756Z,1018.11
2023-04-18T01:57:40.972Z,1018.08
2023-04-18T01:58:41.099Z,1018.10
2023-04-18T01:59:41.285Z,1018.05
2023-04-18T02:00:42.116Z,1018.06
2023-04-18T02:01:42.088Z,1018.13
2023-04-18T02:02:42.020Z,1018.03
2023-04-18T02:03:43.740Z,1018.10
2023-04-18T02:04:42.102Z,1018.06
2023-04-18T02:05:42.274Z,1018.07
2023-04-18T02:06:42.469Z,1018.08
2023-04-18T02:07:42.711Z,1018.05
2023-04-18T02:08:44.408Z,1018.15
2023-04-18T02:09:43.060Z,1018.09
2023-04-18T02:10:43.273Z,1018.08
2023-04-18T02:11:43.445Z,1018.15
2023-04-18T02:12:44.591Z,1018.12
2023-04-18T02:13:43.850Z,1018.14
2023-04-18T02:14:44.092Z,1018.11
2023-04-18T02:15:45.081Z,1018.13
2023-04-18T02:16:45.085Z,1018.09
2023-04-18T02:17:45.164Z,1018.08
2023-04-18T02:18:44.621Z,1018.16
2023-04-18T02:19:45.099Z,1018.12
2023-04-18T02:20:45.167Z,1018.09
2023-04-18T02:21:47.504Z,1018.12
2023-04-18T02:22:45.392Z,1018.11
2023-04-18T02:23:47.043Z,1018.10
2023-04-18T02:24:46.592Z,1018.12
2023-04-18T02:25:46.000Z,1018.04
2023-04-18T02:26:46.598Z,1018.07
2023-04-18T02:27:48.909Z,1018.10
2023-04-18T02:28:46.625Z,1018.05
2023-04-18T02:29:47.583Z,1018.05
2023-04-18T02:30:47.002Z,1018.04
2023-04-18T02:31:47.230Z,1018.00
2023-04-18T02:32:49.552Z,1018.00
2023-04-18T02:33:49.552Z,1017.99
2023-04-18T02:34:47.686Z,1018.00
2023-04-18T02:35:47.913Z,1018.00
2023-04-18T02:36:48.606Z,1018.03
2023-04-18T02:37:48.287Z,1017.96
2023-04-18T02:38:48.446Z,1018.01
2023-04-18T02:39:48.649Z,1018.06
2023-04-18T02:40:48.847Z,1017.97
2023-04-18T02:41:49.036Z,1017.98
2023-04-18T02:42:49.221Z,1017.89
2023-04-18T02:43:50.082Z,1017.90
2023-04-18T02:44:49.603Z,1017.99
2023-04-18T02:45:49.805Z,1017.98
2023-04-18T02:46:50.550Z,1017.93
2023-04-18T02:47:55.466Z,1017.96
2023-04-18T02:48:52.410Z,1017.99
2023-04-18T02:49:50.621Z,1017.94
2023-04-18T02:50:51.697Z,1017.98
2023-04-18T02:51:51.011Z,1017.92
2023-04-18T02:52:52.056Z,1017.96
2023-04-18T02:53:51.269Z,1018.01
2023-04-18T02:54:51.417Z,1017.99
2023-04-18T02:55:53.048Z,1017.99
2023-04-18T02:56:51.779Z,1018.01
2023-04-18T02:57:52.921Z,1018.04
2023-04-18T02:58:54.049Z,1018.01
2023-04-18T02:59:53.094Z,1018.04
2023-04-18T03:00:52.579Z,1018.00
2023-04-18T03:01:54.599Z,1018.01
2023-04-18T03:02:53.777Z,1017.99
2023-04-18T03:03:53.105Z,1018.07
2023-04-18T03:04:55.078Z,1018.05
2023-04-18T03:05:53.486Z,1018.05
2023-04-18T03:06:54.618Z,1018.05
2023-04-18T03:07:54.108Z,1018.13
2023-04-18T03:08:54.022Z,1018.13
2023-04-18T03:09:55.114Z,1018.08
2023-04-18T03:10:56.409Z,1018.06
2023-04-18T03:11:55.576Z,1018.15
2023-04-18T03:12:54.850Z,1018.16
2023-04-18T03:13:55.042Z,1018.20
2023-04-18T03:14:56.055Z,1018.23
2023-04-18T03:15:56.144Z,1018.21
2023-04-18T03:16:55.795Z,1018.18
2023-04-18T03:17:55.893Z,1018.18
2023-04-18T03:18:57.057Z,1018.17
2023-04-18T03:19:56.207Z,1018.19
2023-04-18T03:20:56.380Z,1018.17
2023-04-18T03:21:57.098Z,1018.17
2023-04-18T03:22:56.746Z,1018.16
2023-04-18T03:23:56.909Z,1018.19
2023-04-18T03:24:58.556Z,1018.16
2023-04-18T03:25:57.606Z,1018.14
2023-04-18T03:26:57.550Z,1018.15
2023-04-18T03:27:57.724Z,1018.08
2023-04-18T03:28:57.955Z,1018.09
2023-04-18T03:29:59.099Z,1018.16
2023-04-18T03:30:59.099Z,1018.14
2023-04-18T03:31:59.093Z,1018.12
2023-04-18T03:32:58.792Z,1018.12
2023-04-18T03:33:58.843Z,1018.10
2023-04-18T03:34:59.055Z,1018.10
2023-04-18T03:35:59.276Z,1018.01
2023-04-18T03:36:59.500Z,1018.06
2023-04-18T03:37:59.712Z,1018.09
2023-04-18T03:39:00.595Z,1018.03
2023-04-18T03:39:59.997Z,1018.06
2023-04-18T03:41:00.194Z,1018.02
2023-04-18T03:42:01.061Z,1018.04
2023-04-18T03:43:02.060Z,1018.03
2023-04-18T03:44:01.605Z,1018.05
2023-04-18T03:45:01.009Z,1017.99
2023-04-18T03:46:01.299Z,1018.01
2023-04-18T03:47:01.319Z,1018.02
2023-04-18T03:48:02.405Z,1017.99
2023-04-18T03:49:02.614Z,1018.04
2023-04-18T03:50:02.601Z,1017.98
2023-04-18T03:51:02.633Z,1018.00
2023-04-18T03:52:02.292Z,1018.03
2023-04-18T03:53:03.133Z,1018.03
2023-04-18T03:54:02.689Z,1018.07
2023-04-18T03:55:05.079Z,1018.02
2023-04-18T03:56:03.097Z,1018.06
2023-04-18T03:57:04.561Z,1018.04
2023-04-18T03:58:03.436Z,1018.08
2023-04-18T03:59:04.625Z,1018.05
2023-04-18T04:00:03.776Z,1017.99
2023-04-18T04:01:03.921Z,1018.02
2023-04-18T04:02:04.165Z,1017.98
2023-04-18T04:03:04.433Z,1018.01
2023-04-18T04:04:05.094Z,1017.98
2023-04-18T04:05:05.153Z,1017.96
2023-04-18T04:06:04.705Z,1017.94
2023-04-18T04:07:05.611Z,1017.97
2023-04-18T04:08:05.018Z,1017.96
2023-04-18T04:09:06.207Z,1017.97
2023-04-18T04:10:05.347Z,1017.96
2023-04-18T04:11:05.499Z,1017.98
2023-04-18T04:12:05.680Z,1017.97
2023-04-18T04:13:05.823Z,1017.93
2023-04-18T04:14:06.031Z,1017.99
2023-04-18T04:15:07.115Z,1017.99
2023-04-18T04:16:06.393Z,1017.94
2023-04-18T04:17:07.565Z,1017.94
2023-04-18T04:18:08.730Z,1017.96
2023-04-18T04:19:07.621Z,1017.95
2023-04-18T04:20:09.073Z,1017.95
2023-04-18T04:21:08.140Z,1017.98
2023-04-18T04:22:07.560Z,1018.02
2023-04-18T04:23:10.078Z,1018.02
2023-04-18T04:24:07.939Z,1017.95
2023-04-18T04:25:08.148Z,1018.01
2023-04-18T04:26:08.632Z,1018.01
2023-04-18T04:27:09.568Z,1017.99
2023-04-18T04:28:09.605Z,1017.95
2023-04-18T04:29:08.872Z,1017.94
2023-04-18T04:30:10.737Z,1017.95
2023-04-18T04:31:10.136Z,1017.97
2023-04-18T04:32:09.665Z,1018.06
2023-04-18T04:33:09.588Z,1017.98
2023-04-18T04:34:09.821Z,1017.94
2023-04-18T04:35:10.610Z,1017.89
2023-04-18T04:36:10.124Z,1017.99
2023-04-18T04:37:10.328Z,1017.96
2023-04-18T04:38:10.490Z,1017.91
2023-04-18T04:39:10.642Z,1017.94
2023-04-18T04:40:10.780Z,1017.87
2023-04-18T04:41:10.926Z,1017.89
2023-04-18T04:42:12.079Z,1017.85
2023-04-18T04:43:11.215Z,1017.86
2023-04-18T04:44:11.605Z,1017.94
2023-04-18T04:45:11.518Z,1017.88
2023-04-18T04:46:11.812Z,1017.86
2023-04-18T04:47:11.988Z,1017.87
2023-04-18T04:48:14.521Z,1017.86
2023-04-18T04:49:13.251Z,1017.89
2023-04-18T04:50:12.388Z,1017.88
2023-04-18T04:51:14.069Z,1017.90
2023-04-18T04:52:12.691Z,1017.88
2023-04-18T04:53:13.678Z,1017.90
2023-04-18T04:54:13.305Z,1017.87
2023-04-18T04:55:13.275Z,1017.86
2023-04-18T04:56:13.478Z,1017.90
2023-04-18T04:57:13.703Z,1017.95
2023-04-18T04:58:16.452Z,1017.88
2023-04-18T04:59:13.979Z,1017.96
2023-04-18T05:00:14.169Z,1017.89
2023-04-18T05:01:15.132Z,1017.95
2023-04-18T05:02:14.551Z,1018.00
2023-04-18T05:03:14.709Z,1017.98
2023-04-18T05:04:15.294Z,1017.97
2023-04-18T05:05:15.965Z,1018.02
2023-04-18T05:06:15.127Z,1017.98
2023-04-18T05:07:16.146Z,1018.01
2023-04-18T05:08:16.598Z,1017.98
2023-04-18T05:09:17.077Z,1018.02
2023-04-18T05:10:17.075Z,1018.05
2023-04-18T05:11:18.077Z,1017.97
2023-04-18T05:12:16.328Z,1017.97
2023-04-18T05:13:16.516Z,1018.02
2023-04-18T05:14:18.076Z,1017.99
2023-04-18T05:15:16.861Z,1018.03
2023-04-18T05:16:17.146Z,1018.01
2023-04-18T05:17:19.078Z,1017.95
2023-04-18T05:18:18.137Z,1018.05
2023-04-18T05:19:17.579Z,1018.01
2023-04-18T05:20:18.654Z,1018.02
2023-04-18T05:21:18.014Z,1017.94
2023-04-18T05:22:18.165Z,1017.99
2023-04-18T05:23:19.116Z,1018.03
2023-04-18T05:24:18.502Z,1018.03
2023-04-18T05:25:18.690Z,1018.12
2023-04-18T05:26:19.579Z,1018.04
2023-04-18T05:27:19.587Z,1018.03
2023-04-18T05:28:20.128Z,1018.03
2023-04-18T05:29:19.386Z,1018.07
2023-04-18T05:30:20.127Z,1018.09
2023-04-18T05:31:21.113Z,1018.09
2023-04-18T05:32:20.991Z,1018.05
2023-04-18T05:33:20.257Z,1018.10
2023-04-18T05:34:20.427Z,1018.11
2023-04-18T05:35:20.616Z,1018.11
2023-04-18T05:36:20.810Z,1018.12
2023-04-18T05:37:21.581Z,1018.12
2023-04-18T05:38:22.121Z,1018.17
2023-04-18T05:39:21.435Z,1018.10
2023-04-18T05:40:24.110Z,1018.13
2023-04-18T05:41:21.807Z,1018.19
2023-04-18T05:42:23.000Z,1018.11
2023-04-18T05:43:23.128Z,1018.15
2023-04-18T05:44:23.132Z,1018.12
2023-04-18T05:45:22.397Z,1018.14
2023-04-18T05:46:22.598Z,1018.17
2023-04-18T05:47:22.842Z,1018.16
2023-04-18T05:48:23.020Z,1018.21
2023-04-18T05:49:23.176Z,1018.18
2023-04-18T05:50:25.964Z,1018.20
2023-04-18T05:51:23.602Z,1018.18
2023-04-18T05:52:23.807Z,1018.20
2023-04-18T05:53:24.653Z,1018.20
2023-04-18T05:54:25.151Z,1018.23
2023-04-18T05:55:24.301Z,1018.22
2023-04-18T05:56:24.501Z,1018.24
2023-04-18T05:57:24.700Z,1018.19
2023-04-18T05:58:24.893Z,1018.27
2023-04-18T05:59:26.036Z,1018.24
2023-04-18T06:00:25.299Z,1018.19
2023-04-18T06:01:25.651Z,1018.25
2023-04-18T06:02:26.027Z,1018.22
2023-04-18T06:03:26.771Z,1018.24
2023-04-18T06:04:27.209Z,1018.22
2023-04-18T06:05:26.509Z,1018.22
2023-04-18T06:06:26.516Z,1018.20
2023-04-18T06:07:26.666Z,1018.22
2023-04-18T06:08:26.824Z,1018.19
2023-04-18T06:09:27.209Z,1018.22
2023-04-18T06:10:27.113Z,1018.23
2023-04-18T06:11:28.154Z,1018.17
2023-04-18T06:12:28.598Z,1018.13
2023-04-18T06:13:27.586Z,1018.13
2023-04-18T06:14:27.769Z,1018.11
2023-04-18T06:15:28.659Z,1018.18
2023-04-18T06:16:29.133Z,1018.16
2023-04-18T06:17:29.154Z,1018.16
2023-04-18T06:18:29.131Z,1018.04
2023-04-18T06:19:28.664Z,1018.07
2023-04-18T06:20:28.819Z,1018.05
2023-04-18T06:21:29.019Z,1018.10
2023-04-18T06:22:29.165Z,1018.09
2023-04-18T06:23:29.320Z,1018.12
2023-04-18T06:24:31.115Z,1018.06
2023-04-18T06:25:30.164Z,1018.11
2023-04-18T06:26:29.838Z,1018.14
2023-04-18T06:27:31.859Z,1018.11
2023-04-18T06:28:31.238Z,1018.09
2023-04-18T06:29:31.105Z,1018.14
2023-04-18T06:30:31.609Z,1018.12
2023-04-18T06:31:30.804Z,1018.12
2023-04-18T06:32:31.000Z,1018.13
2023-04-18T06:33:32.131Z,1018.17
2023-04-18T06:34:31.372Z,1018.18
2023-04-18T06:35:31.526Z,1018.12
2023-04-18T06:36:31.690Z,1018.19
2023-04-18T06:37:33.644Z,1018.26
2023-04-18T06:38:32.039Z,1018.20
2023-04-18T06:39:32.403Z,1018.19
2023-04-18T06:40:32.442Z,1018.18
2023-04-18T06:41:32.613Z,1018.21
2023-04-18T06:42:32.787Z,1018.20
2023-04-18T06:43:33.634Z,1018.22
2023-04-18T06:44:34.144Z,1018.26
2023-04-18T06:45:33.442Z,1018.16
2023-04-18T06:46:34.609Z,1018.12
2023-04-18T06:47:34.707Z,1018.20
2023-04-18T06:48:34.639Z,1018.18
2023-04-18T06:49:34.050Z,1018.20
2023-04-18T06:50:35.153Z,1018.22
2023-04-18T06:51:34.684Z,1018.18
2023-04-18T06:52:34.585Z,1018.16
2023-04-18T06:53:35.639Z,1018.26
2023-04-18T06:54:35.316Z,1018.27
2023-04-18T06:55:36.643Z,1018.26
2023-04-18T06:56:36.615Z,1018.21
2023-04-18T06:57:37.150Z,1018.18
2023-04-18T06:58:36.637Z,1018.20
2023-04-18T06:59:36.791Z,1018.20
2023-04-18T07:00:36.668Z,1018.26
2023-04-18T07:01:36.661Z,1018.22
2023-04-18T07:02:38.777Z,1018.27
2023-04-18T07:03:37.212Z,1018.24
2023-04-18T07:04:38.226Z,1018.26
2023-04-18T07:05:37.653Z,1018.29
2023-04-18T07:06:37.155Z,1018.23
2023-04-18T07:07:37.659Z,1018.26
2023-04-18T07:08:37.212Z,1018.30
2023-04-18T07:09:38.116Z,1018.20
2023-04-18T07:10:37.678Z,1018.26
2023-04-18T07:11:38.277Z,1018.23
2023-04-18T07:12:38.032Z,1018.29
2023-04-18T07:13:39.183Z,1018.26
2023-04-18T07:14:39.176Z,1018.20
2023-04-18T07:15:38.584Z,1018.14
2023-04-18T07:16:39.669Z,1018.13
2023-04-18T07:17:39.735Z,1018.18
2023-04-18T07:18:40.152Z,1018.20
2023-04-18T07:19:39.424Z,1018.17
2023-04-18T07:20:39.654Z,1018.22
2023-04-18T07:21:39.847Z,1018.17
2023-04-18T07:22:40.642Z,1018.20
2023-04-18T07:23:41.112Z,1018.22
2023-04-18T07:24:42.609Z,1018.25
2023-04-18T07:25:40.600Z,1018.24
2023-04-18T07:26:40.844Z,1018.18
2023-04-18T07:27:41.010Z,1018.19
2023-04-18T07:28:43.116Z,1018.25
2023-04-18T07:29:42.141Z,1018.30
2023-04-18T07:30:42.127Z,1018.26
2023-04-18T07:31:42.191Z,1018.19
2023-04-18T07:32:41.873Z,1018.24
2023-04-18T07:33:42.027Z,1018.26
2023-04-18T07:34:42.195Z,1018.20
2023-04-18T07:35:42.345Z,1018.27
2023-04-18T07:36:43.603Z,1018.20
2023-04-18T07:37:44.107Z,1018.29
2023-04-18T07:38:42.966Z,1018.28
2023-04-18T07:39:43.654Z,1018.29
2023-04-18T07:40:43.347Z,1018.29
2023-04-18T07:41:44.197Z,1018.31
2023-04-18T07:42:43.733Z,1018.31
2023-04-18T07:43:43.950Z,1018.25
2023-04-18T07:44:45.609Z,1018.28
2023-04-18T07:45:44.367Z,1018.24
2023-04-18T07:46:45.338Z,1018.23
2023-04-18T07:47:44.739Z,1018.24
2023-04-18T07:48:44.860Z,1018.28
2023-04-18T07:49:45.020Z,1018.24
2023-04-18T07:50:45.212Z,1018.29
2023-04-18T07:51:45.417Z,1018.31
2023-04-18T07:52:46.111Z,1018.35
2023-04-18T07:53:46.667Z,1018.30
2023-04-18T07:54:46.668Z,1018.35
2023-04-18T07:55:46.080Z,1018.33
2023-04-18T07:56:47.609Z,1018.31
2023-04-18T07:57:47.580Z,1018.39
2023-04-18T07:58:47.557Z,1018.32
2023-04-18T07:59:48.487Z,1018.36
2023-04-18T08:00:46.983Z,1018.35
2023-04-18T08:01:47.197Z,1018.38
2023-04-18T08:02:49.309Z,1018.35
2023-04-18T08:03:47.717Z,1018.38
2023-04-18T08:04:47.906Z,1018.36
2023-04-18T08:05:47.883Z,1018.31
2023-04-18T08:06:48.161Z,1018.25
2023-04-18T08:07:48.187Z,1018.37
2023-04-18T08:08:49.573Z,1018.28
2023-04-18T08:09:48.635Z,1018.29
2023-04-18T08:10:49.985Z,1018.24
2023-04-18T08:11:48.983Z,1018.30
2023-04-18T08:12:50.155Z,1018.33
2023-04-18T08:13:50.174Z,1018.28
2023-04-18T08:14:50.174Z,1018.34
2023-04-18T08:15:49.698Z,1018.34
2023-04-18T08:16:50.560Z,1018.30
2023-04-18T08:17:50.114Z,1018.29
2023-04-18T08:18:50.130Z,1018.31
2023-04-18T08:19:50.277Z,1018.33
2023-04-18T08:20:50.409Z,1018.37
2023-04-18T08:21:51.482Z,1018.29
2023-04-18T08:23:52.874Z,1018.34
2023-04-18T08:25:03.808Z,1018.33
2023-04-18T08:25:54.130Z,1018.31
2023-04-18T08:26:52.161Z,1018.27
2023-04-18T08:27:52.221Z,1018.34
2023-04-18T08:28:53.486Z,1018.29
2023-04-18T08:29:52.985Z,1018.38
2023-04-18T08:30:52.689Z,1018.32
2023-04-18T08:31:52.416Z,1018.32
2023-04-18T08:32:52.576Z,1018.39
2023-04-18T08:33:52.735Z,1018.30
2023-04-18T08:34:54.626Z,1018.33
2023-04-18T08:35:54.487Z,1018.33
2023-04-18T08:36:53.353Z,1018.27
2023-04-18T08:37:53.553Z,1018.35
2023-04-18T08:38:53.736Z,1018.39
2023-04-18T08:39:53.906Z,1018.25
2023-04-18T08:40:54.038Z,1018.28
2023-04-18T08:41:55.121Z,1018.23
2023-04-18T08:42:54.427Z,1018.29
2023-04-18T08:43:56.948Z,1018.27
2023-04-18T08:44:56.677Z,1018.18
2023-04-18T08:45:54.978Z,1018.27
2023-04-18T08:46:55.159Z,1018.17
2023-04-18T08:47:55.405Z,1018.23
2023-04-18T08:48:56.123Z,1018.16
2023-04-18T08:49:55.672Z,1018.21
2023-04-18T08:50:55.820Z,1018.18
2023-04-18T08:51:56.667Z,1018.20
2023-04-18T08:52:56.181Z,1018.24
2023-04-18T08:53:57.162Z,1018.24
2023-04-18T08:54:56.574Z,1018.28
2023-04-18T08:55:56.753Z,1018.20
2023-04-18T08:56:56.899Z,1018.20
2023-04-18T08:57:57.066Z,1018.19
2023-04-18T08:58:58.188Z,1018.18
2023-04-18T08:59:57.691Z,1018.16
2023-04-18T09:00:58.134Z,1018.19
2023-04-18T09:01:57.839Z,1018.13
2023-04-18T09:03:00.203Z,1018.15
2023-04-18T09:03:58.685Z,1018.16
2023-04-18T09:04:59.171Z,1018.09
2023-04-18T09:05:58.608Z,1018.11
2023-04-18T09:07:00.122Z,1018.13
2023-04-18T09:07:59.029Z,1018.14
2023-04-18T09:08:59.372Z,1018.09
2023-04-18T09:10:00.199Z,1018.10
2023-04-18T09:10:59.534Z,1018.18
2023-04-18T09:11:59.704Z,1018.14
2023-04-18T09:12:59.879Z,1018.04
2023-04-18T09:14:00.046Z,1018.02
2023-04-18T09:15:00.232Z,1018.02
2023-04-18T09:16:00.377Z,1017.96
2023-04-18T09:17:01.774Z,1018.02
2023-04-18T09:18:00.736Z,1017.96
2023-04-18T09:19:01.690Z,1017.98
2023-04-18T09:20:01.728Z,1017.96
2023-04-18T09:21:01.678Z,1017.92
2023-04-18T09:22:01.340Z,1017.92
2023-04-18T09:23:02.154Z,1017.80
2023-04-18T09:24:03.148Z,1017.81
2023-04-18T09:25:01.886Z,1017.71
2023-04-18T09:26:02.056Z,1017.63
2023-04-18T09:27:02.205Z,1017.68
2023-04-18T09:28:02.391Z,1017.64
2023-04-18T09:29:02.571Z,1017.55
2023-04-18T09:30:02.720Z,1017.57
2023-04-18T09:31:02.902Z,1017.52
2023-04-18T09:32:03.094Z,1017.46
2023-04-18T09:33:04.759Z,1017.45
2023-04-18T09:34:03.478Z,1017.43
2023-04-18T09:35:04.770Z,1017.45
2023-04-18T09:36:05.686Z,1017.34
2023-04-18T09:37:05.660Z,1017.32
2023-04-18T09:38:04.036Z,1017.29
2023-04-18T09:39:04.187Z,1017.35
2023-04-18T09:40:04.310Z,1017.30
2023-04-18T09:41:04.471Z,1017.25
2023-04-18T09:42:06.136Z,1017.27
2023-04-18T09:43:04.758Z,1017.28
2023-04-18T09:44:04.883Z,1017.32
2023-04-18T09:45:05.088Z,1017.28
2023-04-18T09:46:06.275Z,1017.24
2023-04-18T09:47:06.140Z,1017.26
2023-04-18T09:48:05.597Z,1017.14
2023-04-18T09:49:08.447Z,1017.12
2023-04-18T09:50:07.041Z,1017.03
2023-04-18T09:51:07.146Z,1017.05
2023-04-18T09:52:06.285Z,1016.93
2023-04-18T09:53:06.507Z,1016.92
2023-04-18T09:54:06.669Z,1016.84
2023-04-18T09:55:07.683Z,1016.61
2023-04-18T09:56:07.712Z,1016.47
2023-04-18T09:57:07.220Z,1016.36
2023-04-18T09:58:07.361Z,1016.26
2023-04-18T09:59:08.197Z,1016.13
2023-04-18T10:00:08.714Z,1016.04
2023-04-18T10:01:08.571Z,1015.88
2023-04-18T10:02:08.363Z,1015.74
2023-04-18T10:03:08.234Z,1015.59
2023-04-18T10:04:08.350Z,1015.45
2023-04-18T10:05:08.496Z,1015.39
2023-04-18T10:06:08.692Z,1015.14
2023-04-18T10:07:08.832Z,1015.00
2023-04-18T10:08:08.981Z,1014.91
2023-04-18T10:09:09.165Z,1014.79
2023-04-18T10:10:09.361Z,1014.73
2023-04-18T10:11:12.086Z,1014.65
2023-04-18T10:12:09.721Z,1014.62
2023-04-18T10:13:10.680Z,1014.69
2023-04-18T10:14:10.075Z,1014.66
2023-04-18T10:15:11.304Z,1014.76
2023-04-18T10:16:10.495Z,1014.81
2023-04-18T10:17:11.139Z,1014.74
2023-04-18T10:18:10.844Z,1014.69
2023-04-18T10:19:10.970Z,1014.88
2023-04-18T10:20:11.092Z,1014.87
2023-04-18T10:21:11.329Z,1015.00
2023-04-18T10:22:11.490Z,1015.11
2023-04-18T10:23:11.713Z,1015.19
2023-04-18T10:24:12.734Z,1015.30
2023-04-18T10:25:12.088Z,1015.36
2023-04-18T10:26:13.147Z,1015.52
2023-04-18T10:27:13.218Z,1015.53
2023-04-18T10:28:13.518Z,1015.51
2023-04-18T10:29:13.438Z,1015.52
2023-04-18T10:30:13.210Z,1015.56
2023-04-18T10:31:13.748Z,1015.64
2023-04-18T10:32:15.152Z,1015.64
2023-04-18T10:33:25.614Z,1015.54
2023-04-18T10:34:15.633Z,1015.55
2023-04-18T10:35:14.252Z,1015.58
2023-04-18T10:36:14.700Z,1015.59
2023-04-18T10:37:16.157Z,1015.62
2023-04-18T10:38:15.214Z,1015.65
2023-04-18T10:39:14.472Z,1015.57
2023-04-18T10:40:14.683Z,1015.57
2023-04-18T10:41:15.690Z,1015.60
2023-04-18T10:42:15.005Z,1015.58
2023-04-18T10:43:16.199Z,1015.48
2023-04-18T10:44:16.405Z,1015.55
2023-04-18T10:45:15.707Z,1015.50
2023-04-18T10:46:28.300Z,1015.49
2023-04-18T10:47:18.050Z,1015.52
2023-04-18T10:48:17.772Z,1015.45
2023-04-18T10:49:18.160Z,1015.35
2023-04-18T10:50:16.568Z,1015.43
2023-04-18T10:51:16.839Z,1015.40
2023-04-18T10:52:17.730Z,1015.35
2023-04-18T10:53:17.714Z,1015.37
2023-04-18T10:54:19.029Z,1015.38
2023-04-18T10:55:17.755Z,1015.41
2023-04-18T10:56:18.657Z,1015.34
2023-04-18T10:57:18.696Z,1015.35
2023-04-18T10:58:18.697Z,1015.42
2023-04-18T10:59:19.195Z,1015.32
2023-04-18T11:00:19.170Z,1015.37
2023-04-18T11:01:18.623Z,1015.31
2023-04-18T11:02:18.741Z,1015.43
2023-04-18T11:03:19.118Z,1015.35
2023-04-18T11:04:19.616Z,1015.35
2023-04-18T11:05:19.726Z,1015.37
2023-04-18T11:06:19.495Z,1015.51
2023-04-18T11:07:19.713Z,1015.39
2023-04-18T11:08:19.902Z,1015.44
2023-04-18T11:09:20.748Z,1015.47
2023-04-18T11:10:21.200Z,1015.47
2023-04-18T11:11:21.476Z,1015.39
2023-04-18T11:12:20.631Z,1015.49
2023-04-18T11:13:21.212Z,1015.54
2023-04-18T11:14:22.661Z,1015.45
2023-04-18T11:15:21.136Z,1015.57
2023-04-18T11:16:22.583Z,1015.59
2023-04-18T11:17:21.489Z,1015.62
2023-04-18T11:18:22.301Z,1015.56
2023-04-18T11:19:21.808Z,1015.51
2023-04-18T11:20:21.971Z,1015.48
2023-04-18T11:21:22.143Z,1015.50
2023-04-18T11:22:22.383Z,1015.43
2023-04-18T11:23:24.175Z,1015.44
2023-04-18T11:24:22.780Z,1015.36
2023-04-18T11:25:22.952Z,1015.33
2023-04-18T11:26:23.124Z,1015.03
2023-04-18T11:27:25.228Z,1015.09
2023-04-18T11:28:23.606Z,1014.94
2023-04-18T11:29:23.811Z,1014.88
2023-04-18T11:30:24.710Z,1014.86
2023-04-18T11:31:24.243Z,1014.76
2023-04-18T11:32:25.328Z,1014.74
2023-04-18T11:33:25.169Z,1014.79
2023-04-18T11:34:24.739Z,1014.61
2023-04-18T11:35:24.949Z,1014.44
2023-04-18T11:36:26.689Z,1014.49
2023-04-18T11:37:27.175Z,1014.44
2023-04-18T11:38:26.231Z,1014.35
2023-04-18T11:39:27.682Z,1014.26
2023-04-18T11:40:25.975Z,1014.22
2023-04-18T11:41:26.736Z,1014.19
2023-04-18T11:42:26.386Z,1014.13
2023-04-18T11:43:27.206Z,1014.03
2023-04-18T11:44:26.764Z,1014.00
2023-04-18T11:45:27.238Z,1014.03
2023-04-18T11:46:27.207Z,1013.95
2023-04-18T11:47:27.287Z,1013.93
2023-04-18T11:48:27.493Z,1013.97
2023-04-18T11:49:27.705Z,1013.94
2023-04-18T11:50:27.897Z,1014.00
2023-04-18T11:51:28.065Z,1014.01
2023-04-18T11:52:29.230Z,1014.00
2023-04-18T11:53:29.219Z,1013.92
2023-04-18T11:54:28.727Z,1013.85
2023-04-18T11:55:28.884Z,1013.77
2023-04-18T11:56:29.730Z,1013.62
2023-04-18T11:57:29.153Z,1013.75
2023-04-18T11:58:30.220Z,1013.74
2023-04-18T11:59:30.216Z,1013.61
2023-04-18T12:00:29.631Z,1013.60
2023-04-18T12:01:30.818Z,1013.68
2023-04-18T12:02:30.048Z,1013.74
2023-04-18T12:03:30.309Z,1013.86
2023-04-18T12:04:31.404Z,1013.93
2023-04-18T12:05:30.892Z,1014.03
2023-04-18T12:06:30.770Z,1014.01
2023-04-18T12:07:31.674Z,1013.97
2023-04-18T12:08:31.085Z,1013.97